Arnegard, ND (58835)

7:38 PM CDT on July 23, 2016 (GMT -0500)
Arnegard, ND | | Change Station

Elev 2146 ft 47.87 °N, 103.39 °W | Updated 35 seconds ago

Clear
Clear
77.2 °F
Feels Like 78 °F
N
5.4
Wind Variable Wind from NNW
Gusts 13.0 mph

Today
High -- | Low -- °F
--% Chance of Precip.
Yesterday
High -- | Low -- °F
Precip. -- in
Pressure 29.84 in
Visibility 10.0 miles
Clouds Clear
Heat Index 78 °F
Dew Point 53 °F
Humidity 43%
Rainfall 0.48 in
Snow Depth Not available.
6:20 AM 9:39 PM
Waning Gibbous, 81% visible
METAR KISN 232352Z AUTO 31019G26KT 10SM CLR 26/12 A2987 RMK AO2 PK WND 31031/2309 SLP103 T02560117 10283 20256 53016 $
Pressure 29.84 in
Visibility 10.0 miles
Clouds Clear
Heat Index 78 °F
Dew Point 53 °F
Humidity 43%
Rainfall 0.48 in
Snow Depth Not available.
6:20 AM 9:39 PM
Waning Gibbous, 81% visible
METAR KISN 232352Z AUTO 31019G26KT 10SM CLR 26/12 A2987 RMK AO2 PK WND 31031/2309 SLP103 T02560117 10283 20256 53016 $

10-Day Weather Forecast

Almanac

Astronomy

Jul. 23, 2016 Rise Set
Actual Time
Civil Twilight
Nautical Twilight
Astronomical Twilight
Moon
Length of Visible Light
Length of Day
Tomorrow will be .
, % of the Moon is Illuminated

Today's Extremes

State Highs State Lows

Community

WunderPhotos

Upload Photos

1,926,982 photos uploaded!

WunderBlog® & News

Nearby

Air Quality

  Air Quality AQ Index Pollutant
Not available.

Snow Depth

Station Depth Elevation

Earthquake Activity

City Distance Mag. Time & Date
Minimum magnitude displayed is 2.5.

Coastal Water Temperatures

Place Temperature

Stations

Nearby Weather Stations

Station Location Temp. Windchill Dew Point Humidity Wind Precip. Elev Updated Type
                   

Watches & Warnings

There are currently no watches in effect.